Time;durP1;ratioP1;P1;durP2;ratioP2;P2;SDS_P1;SDS_P2;PMS_P1;PMS_P2;Temp;Humidity;BMP_temperature;BMP_pressure;BME280_temperature;BME280_humidity;BME280_pressure;Samples;Min_cycle;Max_cycle;Signal;HPM_P1;HPM_P2
2023/12/04 00:01:10;;;;;;;37.22;21.70;;;3.00;99.90;;;;;;4973546;28;20042;-72
2023/12/04 00:03:36;;;;;;;36.35;21.35;;;3.00;99.90;;;;;;4975174;28;20031;-72
2023/12/04 00:06:01;;;;;;;37.08;21.48;;;3.10;99.90;;;;;;4974891;28;20034;-72
2023/12/04 00:08:27;;;;;;;38.80;21.92;;;3.10;99.90;;;;;;4975121;28;20552;-72
2023/12/04 00:10:54;;;;;;;35.42;20.92;;;3.00;99.90;;;;;;4973903;28;20110;-73
2023/12/04 00:13:19;;;;;;;38.40;21.75;;;3.00;99.90;;;;;;4975140;28;20129;-73
2023/12/04 00:15:45;;;;;;;38.55;21.77;;;2.90;99.90;;;;;;4957449;28;20518;-73
2023/12/04 00:18:10;;;;;;;38.80;21.13;;;2.90;99.90;;;;;;4974646;28;20054;-74
2023/12/04 00:20:36;;;;;;;36.88;20.27;;;3.00;99.90;;;;;;4973717;28;20031;-71
2023/12/04 00:23:02;;;;;;;34.17;19.83;;;3.00;99.90;;;;;;4974169;28;20046;-72
2023/12/04 00:25:28;;;;;;;37.25;21.25;;;3.00;99.90;;;;;;4972940;28;20118;-70
2023/12/04 00:27:53;;;;;;;38.53;21.02;;;3.00;99.90;;;;;;4974718;28;20627;-71
2023/12/04 00:30:19;;;;;;;39.42;21.92;;;3.00;99.90;;;;;;4975238;28;20379;-70
2023/12/04 00:32:45;;;;;;;36.20;20.55;;;3.10;99.90;;;;;;4974164;28;20041;-70
2023/12/04 00:35:11;;;;;;;36.28;20.77;;;3.00;99.90;;;;;;4974154;28;20050;-70
2023/12/04 00:37:38;;;;;;;37.88;19.92;;;3.00;99.90;;;;;;4974896;28;20042;-69
2023/12/04 00:40:05;;;;;;;36.60;20.13;;;3.00;99.90;;;;;;4973167;28;20034;-70
2023/12/04 00:42:31;;;;;;;35.95;20.25;;;3.00;99.90;;;;;;4974848;28;20039;-70
2023/12/04 00:44:56;;;;;;;34.55;20.05;;;3.10;99.90;;;;;;4973746;28;20081;-70
2023/12/04 00:47:22;;;;;;;32.70;18.83;;;3.10;99.90;;;;;;4974272;28;20038;-69
2023/12/04 00:49:48;;;;;;;36.45;19.65;;;3.10;99.90;;;;;;4974584;28;20046;-70
2023/12/04 00:52:13;;;;;;;33.78;19.27;;;3.10;99.90;;;;;;4975081;28;20053;-70
2023/12/04 00:54:40;;;;;;;31.98;18.80;;;3.20;99.90;;;;;;4975259;28;20126;-71
2023/12/04 00:57:06;;;;;;;33.67;18.92;;;3.20;99.90;;;;;;4974802;28;20038;-71
2023/12/04 00:59:32;;;;;;;34.75;19.35;;;3.30;99.90;;;;;;4973916;28;20105;-73
2023/12/04 01:01:57;;;;;;;37.95;20.30;;;3.30;99.90;;;;;;4974978;28;20043;-72
2023/12/04 01:04:23;;;;;;;32.85;18.45;;;3.20;99.90;;;;;;4974906;28;20557;-72
2023/12/04 01:06:48;;;;;;;36.97;20.05;;;3.20;99.90;;;;;;4973935;28;20026;-70
2023/12/04 01:09:14;;;;;;;34.83;20.17;;;3.20;99.90;;;;;;4974480;28;20101;-70
2023/12/04 01:11:40;;;;;;;35.85;19.95;;;3.20;99.90;;;;;;4974242;28;20526;-70
2023/12/04 01:14:05;;;;;;;36.45;19.38;;;3.10;99.90;;;;;;4974631;28;20065;-70
2023/12/04 01:16:31;;;;;;;33.55;18.60;;;3.10;99.90;;;;;;4973412;28;20542;-70
2023/12/04 01:18:57;;;;;;;31.48;18.75;;;3.20;99.90;;;;;;4974363;28;20050;-69
2023/12/04 01:21:22;;;;;;;33.78;18.85;;;3.20;99.90;;;;;;4974430;28;20035;-70
2023/12/04 01:23:48;;;;;;;32.75;18.25;;;3.20;99.90;;;;;;4973013;28;20038;-70
2023/12/04 01:26:14;;;;;;;35.13;19.45;;;3.10;99.90;;;;;;4974287;28;20113;-70
2023/12/04 01:28:39;;;;;;;33.00;17.80;;;3.10;99.90;;;;;;4974226;28;20027;-70
2023/12/04 01:31:06;;;;;;;33.67;18.98;;;3.10;99.90;;;;;;4973034;28;20479;-70
2023/12/04 01:33:32;;;;;;;30.42;17.88;;;3.10;99.90;;;;;;4971766;28;20035;-70
2023/12/04 01:35:58;;;;;;;31.80;19.00;;;3.10;99.90;;;;;;4972552;28;20031;-71
2023/12/04 01:38:24;;;;;;;33.17;18.85;;;3.10;99.90;;;;;;4973788;28;20514;-71
2023/12/04 01:40:49;;;;;;;35.55;18.25;;;3.10;99.90;;;;;;4972770;28;20035;-71
2023/12/04 01:43:15;;;;;;;31.83;18.85;;;3.20;99.90;;;;;;4956631;28;20046;-70
2023/12/04 01:45:41;;;;;;;33.22;18.80;;;3.20;99.90;;;;;;4972683;28;20395;-72
2023/12/04 01:48:07;;;;;;;31.63;18.20;;;3.20;99.90;;;;;;4972991;28;20490;-71
2023/12/04 01:50:34;;;;;;;34.30;19.08;;;3.20;99.90;;;;;;4974687;28;20023;-71
2023/12/04 01:53:00;;;;;;;30.00;17.13;;;3.10;99.90;;;;;;4974012;28;20058;-72
2023/12/04 01:55:27;;;;;;;29.73;17.90;;;3.10;99.90;;;;;;4973924;28;20035;-71
2023/12/04 01:57:55;;;;;;;30.48;18.00;;;3.10;99.90;;;;;;4973610;28;20030;-71
2023/12/04 02:00:21;;;;;;;33.22;18.80;;;3.20;99.90;;;;;;4972720;28;20027;-72
2023/12/04 02:02:47;;;;;;;32.33;19.20;;;3.20;99.90;;;;;;4971959;28;20047;-71
2023/12/04 02:05:14;;;;;;;29.90;17.85;;;3.10;99.90;;;;;;4973872;28;20050;-71
2023/12/04 02:07:41;;;;;;;33.10;19.83;;;3.00;99.90;;;;;;4956808;28;20042;-71
2023/12/04 02:10:06;;;;;;;37.08;19.00;;;3.00;99.90;;;;;;4973302;28;20035;-71
2023/12/04 02:12:32;;;;;;;32.70;18.98;;;3.00;99.90;;;;;;4971094;28;20094;-71
2023/12/04 02:14:58;;;;;;;36.35;20.55;;;3.10;99.90;;;;;;4973614;28;20497;-71
2023/12/04 02:17:26;;;;;;;32.35;18.83;;;3.00;99.90;;;;;;4973832;28;20467;-71
2023/12/04 02:19:52;;;;;;;32.85;19.27;;;3.00;99.90;;;;;;4972362;28;20034;-71
2023/12/04 02:22:18;;;;;;;34.65;18.77;;;3.00;99.90;;;;;;4971957;28;20039;-71
2023/12/04 02:24:45;;;;;;;32.58;18.52;;;3.00;99.90;;;;;;4973770;28;20122;-71
2023/12/04 02:27:25;;;;;;;31.67;18.70;;;3.10;99.90;;;;;;4973124;28;20086;-71
2023/12/04 02:29:59;;;;;;;31.27;18.20;;;3.10;99.90;;;;;;4973699;28;20069;-72
2023/12/04 02:32:28;;;;;;;32.55;18.15;;;3.00;99.90;;;;;;4971118;28;20471;-71
2023/12/04 02:34:54;;;;;;;31.05;17.52;;;3.00;99.90;;;;;;4973329;28;20037;-71
2023/12/04 02:37:22;;;;;;;31.05;18.25;;;3.00;99.90;;;;;;4973020;28;20031;-71
2023/12/04 02:39:49;;;;;;;30.98;17.40;;;3.10;99.90;;;;;;4970931;28;20497;-71
2023/12/04 02:42:17;;;;;;;30.30;17.48;;;3.00;99.90;;;;;;4973295;28;20046;-71
2023/12/04 02:44:42;;;;;;;32.95;17.75;;;3.00;99.90;;;;;;4970749;28;20047;-71
2023/12/04 02:47:08;;;;;;;32.90;18.52;;;2.90;99.90;;;;;;4972699;28;20591;-71
2023/12/04 02:49:33;;;;;;;30.90;18.10;;;2.90;99.90;;;;;;4972563;28;20039;-71
2023/12/04 02:51:59;;;;;;;30.35;17.20;;;3.00;99.90;;;;;;4972950;28;20035;-72
2023/12/04 02:54:25;;;;;;;27.00;16.40;;;3.00;99.90;;;;;;4973197;28;20086;-72
2023/12/04 02:56:50;;;;;;;28.23;16.55;;;3.10;99.90;;;;;;4972586;28;20499;-72
2023/12/04 02:59:16;;;;;;;27.75;16.30;;;3.10;99.90;;;;;;4971734;28;20035;-71
2023/12/04 03:01:41;;;;;;;28.88;16.25;;;3.10;99.90;;;;;;4972986;28;20526;-71
2023/12/04 03:04:07;;;;;;;28.20;16.58;;;3.10;99.90;;;;;;4972006;28;20039;-71
2023/12/04 03:06:33;;;;;;;27.58;16.02;;;3.10;99.90;;;;;;4971516;28;20047;-71
2023/12/04 03:08:59;;;;;;;25.17;15.57;;;3.20;99.90;;;;;;4972680;28;20118;-71
2023/12/04 03:11:25;;;;;;;26.42;16.13;;;3.20;99.90;;;;;;4972103;28;20490;-71
2023/12/04 03:13:50;;;;;;;26.77;15.55;;;3.30;99.90;;;;;;4972830;28;20039;-71
2023/12/04 03:16:17;;;;;;;25.60;16.10;;;3.20;99.90;;;;;;4972758;28;20035;-71
2023/12/04 03:18:44;;;;;;;27.33;16.65;;;3.20;99.90;;;;;;4972972;28;20030;-72
2023/12/04 03:21:09;;;;;;;27.42;16.50;;;3.20;99.90;;;;;;4968243;28;20027;-71
2023/12/04 03:23:35;;;;;;;25.33;15.70;;;3.20;99.90;;;;;;4972671;28;20031;-72
2023/12/04 03:26:01;;;;;;;26.38;15.80;;;3.20;99.90;;;;;;4972393;28;20043;-72
2023/12/04 03:28:26;;;;;;;26.40;15.27;;;3.20;99.90;;;;;;4971843;28;20375;-72
2023/12/04 03:30:52;;;;;;;23.85;14.63;;;3.10;99.90;;;;;;4976035;28;20042;-71
2023/12/04 03:33:18;;;;;;;28.98;16.30;;;3.20;99.90;;;;;;4974696;28;20050;-71
2023/12/04 03:35:43;;;;;;;25.38;14.35;;;3.20;99.90;;;;;;4975535;28;20156;-71
2023/12/04 03:38:09;;;;;;;26.80;15.15;;;3.20;99.90;;;;;;4975338;28;20027;-72
2023/12/04 03:40:35;;;;;;;25.45;15.23;;;3.30;99.90;;;;;;4975025;28;20078;-71
2023/12/04 03:43:00;;;;;;;24.58;15.18;;;3.30;99.90;;;;;;4975191;28;20043;-71
2023/12/04 03:45:26;;;;;;;27.40;14.05;;;3.20;99.90;;;;;;4974174;28;20463;-71
2023/12/04 03:47:52;;;;;;;23.00;13.88;;;3.30;99.90;;;;;;4975967;28;20035;-71
2023/12/04 03:50:17;;;;;;;24.95;15.10;;;3.40;99.90;;;;;;4974682;28;20367;-71
2023/12/04 03:52:43;;;;;;;24.45;14.05;;;3.30;99.90;;;;;;4975539;28;20487;-71
2023/12/04 03:55:09;;;;;;;24.15;14.38;;;3.30;99.90;;;;;;4975981;28;20451;-71
2023/12/04 03:57:35;;;;;;;22.42;14.30;;;3.30;99.90;;;;;;4974423;28;20039;-71
2023/12/04 04:00:00;;;;;;;22.42;13.48;;;3.20;99.90;;;;;;4975781;28;20475;-71
2023/12/04 04:02:26;;;;;;;22.58;13.73;;;3.10;99.90;;;;;;4975819;28;20057;-71
2023/12/04 04:04:52;;;;;;;24.75;13.77;;;3.10;99.90;;;;;;4973871;28;20039;-71
2023/12/04 04:07:18;;;;;;;25.42;13.98;;;3.10;99.90;;;;;;4973414;28;20030;-70
2023/12/04 04:09:44;;;;;;;23.38;14.00;;;3.00;99.90;;;;;;4975440;28;20035;-71
2023/12/04 04:12:09;;;;;;;22.13;13.57;;;3.10;99.90;;;;;;4975370;28;20100;-71
2023/12/04 04:14:35;;;;;;;23.10;13.40;;;3.10;99.90;;;;;;4975450;28;20113;-70
2023/12/04 04:17:01;;;;;;;21.83;13.75;;;3.10;99.90;;;;;;4975736;28;20027;-71
2023/12/04 04:19:26;;;;;;;25.73;13.65;;;3.10;99.90;;;;;;4975463;28;20042;-71
2023/12/04 04:21:52;;;;;;;22.85;13.38;;;3.20;99.90;;;;;;4974254;28;20347;-71
2023/12/04 04:24:17;;;;;;;23.00;13.45;;;3.20;99.90;;;;;;4974921;28;20118;-70
2023/12/04 04:26:43;;;;;;;20.38;12.23;;;3.10;99.90;;;;;;4973745;28;20458;-71
2023/12/04 04:29:09;;;;;;;19.23;12.68;;;3.10;99.90;;;;;;4975568;28;20102;-72
2023/12/04 04:31:35;;;;;;;22.23;13.18;;;3.00;99.90;;;;;;4974959;28;20040;-71
2023/12/04 04:34:01;;;;;;;20.88;13.20;;;2.90;99.90;;;;;;4975205;28;20058;-71
2023/12/04 04:36:27;;;;;;;21.10;12.80;;;2.90;99.90;;;;;;4974609;28;20062;-71
2023/12/04 04:38:52;;;;;;;22.35;13.15;;;2.90;99.90;;;;;;4975224;28;20494;-70
2023/12/04 04:41:18;;;;;;;20.50;12.90;;;2.90;99.90;;;;;;4974714;28;20531;-71
2023/12/04 04:43:43;;;;;;;20.85;11.98;;;2.90;99.90;;;;;;4974605;28;20529;-71
2023/12/04 04:46:09;;;;;;;21.45;11.70;;;2.90;99.90;;;;;;4973266;28;20509;-71
2023/12/04 04:48:35;;;;;;;21.58;13.20;;;2.90;99.90;;;;;;4974570;28;20514;-71
2023/12/04 04:51:01;;;;;;;20.75;12.50;;;2.90;99.90;;;;;;4974700;28;20081;-71
2023/12/04 04:53:26;;;;;;;21.80;12.70;;;2.90;99.90;;;;;;4974501;28;20510;-71
2023/12/04 04:55:52;;;;;;;21.92;13.40;;;3.00;99.90;;;;;;4974876;28;20542;-72
2023/12/04 04:58:17;;;;;;;20.20;11.98;;;2.90;99.90;;;;;;4974411;28;20039;-72
2023/12/04 05:00:45;;;;;;;19.73;12.35;;;2.90;99.90;;;;;;4973973;28;20535;-72
2023/12/04 05:03:10;;;;;;;20.15;11.77;;;2.90;99.90;;;;;;4973238;28;20039;-71
2023/12/04 05:05:36;;;;;;;18.88;12.23;;;2.90;99.90;;;;;;4973580;28;20119;-71
2023/12/04 05:08:01;;;;;;;19.60;11.40;;;2.90;99.90;;;;;;4974097;28;20042;-71
2023/12/04 05:10:27;;;;;;;21.70;11.95;;;2.80;99.90;;;;;;4971616;28;20518;-70
2023/12/04 05:12:53;;;;;;;21.42;11.73;;;2.90;99.90;;;;;;4956934;28;20488;-71
2023/12/04 05:15:18;;;;;;;20.38;11.65;;;3.00;99.90;;;;;;4974183;28;20050;-71
2023/12/04 05:17:44;;;;;;;21.55;12.10;;;2.90;99.90;;;;;;4974024;28;20491;-70
2023/12/04 05:20:10;;;;;;;20.17;11.73;;;2.80;99.90;;;;;;4972784;28;20475;-69
2023/12/04 05:22:35;;;;;;;19.23;11.32;;;2.70;99.90;;;;;;4972824;28;20062;-70
2023/12/04 05:25:01;;;;;;;16.92;11.07;;;2.70;99.90;;;;;;4973934;28;20042;-70
2023/12/04 05:27:27;;;;;;;22.02;11.52;;;2.70;99.90;;;;;;4973700;28;20035;-70
2023/12/04 05:29:52;;;;;;;17.02;10.73;;;2.80;99.90;;;;;;4972876;28;20513;-69
2023/12/04 05:32:18;;;;;;;15.43;10.43;;;2.80;99.90;;;;;;4974227;28;20374;-70
2023/12/04 05:34:44;;;;;;;17.52;11.02;;;2.90;99.90;;;;;;4973765;28;20039;-70
2023/12/04 05:37:09;;;;;;;20.52;11.50;;;2.90;99.90;;;;;;4973357;28;20042;-70
2023/12/04 05:39:35;;;;;;;17.55;11.25;;;2.90;99.90;;;;;;4970575;28;20383;-70
2023/12/04 05:42:01;;;;;;;15.35;9.60;;;2.90;99.90;;;;;;4972949;28;20390;-70
2023/12/04 05:44:26;;;;;;;17.55;10.45;;;2.90;99.90;;;;;;4973807;28;20393;-70
2023/12/04 05:46:52;;;;;;;21.92;11.73;;;2.90;99.90;;;;;;4956316;28;20031;-70
2023/12/04 05:49:17;;;;;;;17.95;10.43;;;2.90;99.90;;;;;;4973582;28;20054;-70
2023/12/04 05:51:43;;;;;;;17.02;10.73;;;2.90;99.90;;;;;;4973038;28;20073;-70
2023/12/04 05:54:09;;;;;;;18.77;11.85;;;2.90;99.90;;;;;;4973302;28;20035;-70
2023/12/04 05:56:34;;;;;;;15.88;9.43;;;2.90;99.90;;;;;;4970932;28;20090;-70
2023/12/04 05:59:00;;;;;;;16.73;10.25;;;2.90;99.90;;;;;;4973339;28;20035;-70
2023/12/04 06:01:26;;;;;;;14.80;9.98;;;2.80;99.90;;;;;;4973135;28;20089;-70
2023/12/04 06:03:51;;;;;;;17.65;10.43;;;2.80;99.90;;;;;;4973117;28;20402;-70
2023/12/04 06:06:17;;;;;;;17.80;10.57;;;2.80;99.90;;;;;;4970627;28;20038;-70
2023/12/04 06:08:43;;;;;;;16.02;10.60;;;2.70;99.90;;;;;;4973317;28;20033;-70
2023/12/04 06:11:08;;;;;;;16.38;10.55;;;2.70;99.90;;;;;;4972912;28;20368;-70
2023/12/04 06:13:34;;;;;;;16.58;10.07;;;2.60;99.90;;;;;;4971610;28;20360;-69
2023/12/04 06:16:00;;;;;;;16.63;10.00;;;2.60;99.90;;;;;;4971708;28;20035;-69
2023/12/04 06:18:25;;;;;;;15.00;9.57;;;2.70;99.90;;;;;;4973065;28;20038;-70
2023/12/04 06:20:51;;;;;;;16.88;10.13;;;2.80;99.90;;;;;;4972799;28;20031;-70
2023/12/04 06:23:17;;;;;;;15.02;9.45;;;2.70;99.90;;;;;;4972859;28;20403;-70
2023/12/04 06:25:43;;;;;;;14.85;8.57;;;2.70;99.90;;;;;;4972786;28;20023;-71
2023/12/04 06:28:09;;;;;;;13.38;9.10;;;2.80;99.90;;;;;;4969091;28;20082;-71
2023/12/04 06:30:35;;;;;;;15.65;9.68;;;3.00;99.90;;;;;;4971781;28;20430;-72
2023/12/04 06:33:01;;;;;;;14.65;9.18;;;3.10;99.90;;;;;;4973137;28;20034;-71
2023/12/04 06:35:27;;;;;;;14.65;9.45;;;3.20;99.90;;;;;;4973686;28;20502;-73
2023/12/04 06:37:59;;;;;;;15.05;10.10;;;3.30;99.90;;;;;;4968857;28;20031;-71
2023/12/04 06:40:24;;;;;;;14.95;8.80;;;3.40;99.90;;;;;;4972083;28;20403;-72
2023/12/04 06:42:51;;;;;;;14.80;8.93;;;3.30;99.90;;;;;;4970916;28;20035;-72
2023/12/04 06:45:17;;;;;;;13.68;9.05;;;3.30;99.90;;;;;;4972356;28;20059;-70
2023/12/04 06:47:45;;;;;;;15.00;8.73;;;3.30;99.90;;;;;;4972710;28;20078;-72
2023/12/04 06:50:11;;;;;;;13.23;8.38;;;3.20;99.90;;;;;;4971573;28;20066;-72
2023/12/04 06:52:37;;;;;;;14.02;8.82;;;3.30;99.90;;;;;;4971051;28;20494;-74
2023/12/04 06:55:03;;;;;;;13.80;8.82;;;3.30;99.90;;;;;;4970175;28;20097;-76
2023/12/04 06:57:29;;;;;;;14.35;8.68;;;3.20;99.90;;;;;;4972557;28;20506;-72
2023/12/04 06:59:54;;;;;;;14.32;9.15;;;3.20;99.90;;;;;;4972473;28;20046;-71
2023/12/04 07:02:20;;;;;;;12.65;8.95;;;3.10;99.90;;;;;;4972769;28;20074;-72
2023/12/04 07:04:45;;;;;;;12.95;8.60;;;3.20;99.90;;;;;;4972451;28;20545;-73
2023/12/04 07:07:12;;;;;;;11.65;7.93;;;3.20;99.90;;;;;;4976068;28;20031;-73
2023/12/04 07:09:37;;;;;;;14.65;9.15;;;3.30;99.90;;;;;;4976765;28;20111;-71
2023/12/04 07:12:03;;;;;;;13.85;9.07;;;3.40;99.90;;;;;;4975435;28;20406;-72
2023/12/04 07:14:29;;;;;;;12.93;8.40;;;3.40;99.90;;;;;;4975316;28;20031;-72
2023/12/04 07:16:55;;;;;;;12.55;7.95;;;3.40;99.60;;;;;;4974851;28;20035;-73
2023/12/04 07:19:20;;;;;;;12.65;7.70;;;3.40;99.50;;;;;;4975490;28;20422;-73
2023/12/04 07:21:46;;;;;;;13.35;7.78;;;3.40;99.40;;;;;;4975715;28;20043;-73
2023/12/04 07:24:12;;;;;;;13.85;7.82;;;3.40;99.20;;;;;;4973531;28;20047;-71
2023/12/04 07:26:38;;;;;;;11.98;7.80;;;3.30;99.10;;;;;;4975207;28;20039;-71
2023/12/04 07:29:04;;;;;;;13.43;7.68;;;3.30;99.00;;;;;;4975533;28;20049;-71
2023/12/04 07:31:29;;;;;;;10.25;6.88;;;3.20;98.80;;;;;;4975687;28;20027;-72
2023/12/04 07:33:55;;;;;;;11.88;7.65;;;3.20;99.60;;;;;;4975375;28;20110;-72
2023/12/04 07:36:22;;;;;;;10.25;6.97;;;3.20;98.90;;;;;;4975942;28;20042;-71
2023/12/04 07:38:47;;;;;;;12.13;7.40;;;3.30;99.10;;;;;;4985784;28;20030;-71
2023/12/04 07:41:13;;;;;;;10.27;6.72;;;3.40;98.80;;;;;;4977249;28;20541;-72
2023/12/04 07:43:39;;;;;;;13.45;7.82;;;3.40;99.10;;;;;;4975615;28;20078;-71
2023/12/04 07:46:05;;;;;;;12.05;7.40;;;3.60;99.40;;;;;;4976913;28;20042;-71
2023/12/04 07:48:31;;;;;;;11.35;6.60;;;3.60;99.20;;;;;;4974420;28;20027;-72
2023/12/04 07:50:57;;;;;;;11.80;7.30;;;3.70;99.00;;;;;;4976930;28;20130;-72
2023/12/04 07:53:22;;;;;;;11.02;7.32;;;3.80;98.80;;;;;;4975244;28;20423;-74
2023/12/04 07:55:50;;;;;;;12.70;8.02;;;3.70;97.80;;;;;;4975261;28;20499;-74
2023/12/04 07:58:17;;;;;;;13.88;7.55;;;3.60;98.00;;;;;;4975820;28;20031;-72
2023/12/04 08:00:44;;;;;;;12.45;7.43;;;3.50;97.50;;;;;;4973779;28;20072;-73
2023/12/04 08:03:10;;;;;;;13.00;8.00;;;3.40;97.50;;;;;;4976388;28;20031;-72
2023/12/04 08:05:36;;;;;;;12.07;7.60;;;3.50;97.60;;;;;;4975718;28;20038;-74
2023/12/04 08:08:02;;;;;;;13.07;7.53;;;3.50;97.50;;;;;;4976891;28;20046;-74
2023/12/04 08:10:28;;;;;;;11.57;7.00;;;3.50;97.30;;;;;;4976177;28;20031;-73
2023/12/04 08:12:53;;;;;;;11.48;6.90;;;3.50;97.50;;;;;;4976867;28;20038;-73
2023/12/04 08:15:19;;;;;;;11.20;6.65;;;3.60;97.70;;;;;;4975054;28;20074;-73
2023/12/04 08:17:45;;;;;;;11.48;6.80;;;3.70;97.50;;;;;;4975251;28;20113;-73
2023/12/04 08:20:14;;;;;;;11.40;6.53;;;3.80;97.50;;;;;;4973794;28;20505;-73
2023/12/04 08:22:41;;;;;;;9.93;6.35;;;3.90;97.20;;;;;;4975170;28;20031;-73
2023/12/04 08:25:07;;;;;;;12.15;7.20;;;4.00;97.10;;;;;;4975336;28;20035;-73
2023/12/04 08:27:33;;;;;;;10.60;6.97;;;4.10;96.80;;;;;;4975323;28;20443;-73
2023/12/04 08:29:58;;;;;;;10.98;6.30;;;4.00;96.30;;;;;;4975498;28;20109;-72
2023/12/04 08:32:26;;;;;;;11.70;6.50;;;4.10;96.50;;;;;;4974827;28;20066;-72
2023/12/04 08:34:51;;;;;;;11.00;6.40;;;4.10;96.50;;;;;;4973822;28;20559;-73
2023/12/04 08:37:20;;;;;;;9.77;6.75;;;4.10;96.00;;;;;;4974808;28;20062;-73
2023/12/04 08:39:46;;;;;;;12.82;7.30;;;4.00;96.10;;;;;;4974696;28;20042;-72
2023/12/04 08:42:12;;;;;;;10.95;7.22;;;4.10;96.50;;;;;;4972178;28;20046;-73
2023/12/04 08:44:38;;;;;;;12.18;8.07;;;4.00;96.40;;;;;;4973562;28;20105;-73
2023/12/04 08:47:04;;;;;;;11.60;6.97;;;4.00;96.60;;;;;;4974490;28;20027;-73
2023/12/04 08:49:30;;;;;;;12.32;7.55;;;4.00;96.90;;;;;;4972853;28;21328;-73
2023/12/04 08:51:56;;;;;;;13.40;7.90;;;4.00;96.90;;;;;;4973870;28;20122;-72
2023/12/04 08:54:21;;;;;;;11.77;7.32;;;4.00;96.80;;;;;;4973156;28;20035;-74
2023/12/04 08:56:47;;;;;;;12.35;7.50;;;4.10;96.70;;;;;;4973508;28;20450;-74
2023/12/04 08:59:13;;;;;;;12.50;7.28;;;4.10;96.20;;;;;;4972924;28;20039;-74
2023/12/04 09:01:39;;;;;;;10.95;6.93;;;4.00;96.30;;;;;;4972385;28;20046;-75
2023/12/04 09:04:04;;;;;;;12.60;8.13;;;4.10;96.40;;;;;;4974471;28;20077;-71
2023/12/04 09:06:30;;;;;;;12.63;7.97;;;4.20;96.00;;;;;;4973706;28;20034;-72
2023/12/04 09:08:56;;;;;;;14.00;7.95;;;4.10;95.80;;;;;;4973876;28;20039;-73
2023/12/04 09:11:22;;;;;;;13.82;7.30;;;4.00;96.00;;;;;;4973331;28;20408;-73
2023/12/04 09:13:47;;;;;;;12.73;8.05;;;4.00;96.20;;;;;;4972072;28;20426;-73
2023/12/04 09:16:13;;;;;;;13.10;7.30;;;4.10;95.90;;;;;;4973169;28;20089;-72
2023/12/04 09:18:39;;;;;;;10.93;7.03;;;4.10;96.00;;;;;;4973071;28;20038;-78
2023/12/04 09:21:05;;;;;;;11.73;7.57;;;4.20;96.00;;;;;;4973950;28;20035;-76
2023/12/04 09:23:31;;;;;;;10.98;7.03;;;4.20;95.90;;;;;;4973657;28;20494;-77
2023/12/04 09:25:56;;;;;;;11.88;7.53;;;4.20;95.60;;;;;;4974297;28;20450;-77
2023/12/04 09:28:22;;;;;;;12.45;8.27;;;4.30;95.90;;;;;;4971045;28;20089;-75
2023/12/04 09:30:48;;;;;;;11.15;6.82;;;4.20;95.40;;;;;;4973482;28;20070;-83
2023/12/04 09:33:13;;;;;;;13.10;8.50;;;4.30;95.70;;;;;;4970520;28;20121;-82
2023/12/04 09:35:39;;;;;;;12.68;7.38;;;4.30;95.40;;;;;;4975300;28;20031;-81
2023/12/04 09:38:05;;;;;;;13.32;7.40;;;4.30;95.60;;;;;;4971910;28;20031;-74
2023/12/04 09:40:31;;;;;;;13.48;7.63;;;4.40;95.90;;;;;;4972591;28;20082;-73
2023/12/04 09:42:57;;;;;;;10.13;6.97;;;4.50;96.10;;;;;;4956445;28;20045;-73
2023/12/04 09:45:24;;;;;;;11.85;7.57;;;4.50;96.20;;;;;;4973346;28;20566;-73
2023/12/04 09:47:50;;;;;;;12.52;7.57;;;4.60;96.00;;;;;;4971281;28;20037;-74
2023/12/04 09:50:20;;;;;;;9.70;6.63;;;4.70;96.00;;;;;;4971919;28;20475;-74
2023/12/04 09:52:52;;;;;;;10.77;6.85;;;4.80;96.00;;;;;;4972260;28;20891;-73
2023/12/04 09:55:18;;;;;;;11.18;7.22;;;4.90;95.90;;;;;;4973047;28;20031;-74
2023/12/04 09:57:48;;;;;;;11.32;7.32;;;5.00;95.60;;;;;;4972009;28;20347;-76
2023/12/04 10:00:15;;;;;;;13.27;8.10;;;5.00;95.50;;;;;;4973912;28;20580;-77
2023/12/04 10:02:41;;;;;;;13.10;8.63;;;4.90;94.80;;;;;;4975192;28;20034;-76
2023/12/04 10:05:10;;;;;;;12.55;7.38;;;4.80;94.90;;;;;;4971722;28;20023;-76
2023/12/04 10:07:39;;;;;;;12.30;7.65;;;4.70;95.10;;;;;;4972327;28;20034;-77
2023/12/04 10:10:05;;;;;;;13.85;8.43;;;4.70;95.40;;;;;;4972668;28;20042;-76
2023/12/04 10:12:33;;;;;;;13.05;8.20;;;4.70;95.40;;;;;;4970868;28;20110;-75
2023/12/04 10:15:10;;;;;;;12.30;7.72;;;4.70;95.50;;;;;;4972768;28;20031;-77
2023/12/04 10:17:38;;;;;;;13.27;9.02;;;4.80;95.70;;;;;;4972685;28;20050;-77
2023/12/04 10:20:12;;;;;;;12.32;8.70;;;4.80;95.70;;;;;;4971721;28;20026;-76
2023/12/04 10:22:52;;;;;;;12.90;8.02;;;4.90;95.60;;;;;;4971734;28;20494;-77
2023/12/04 10:25:19;;;;;;;12.25;8.32;;;4.80;95.30;;;;;;4972632;28;20098;-76
2023/12/04 10:27:46;;;;;;;13.43;8.63;;;4.80;94.90;;;;;;4973037;28;20037;-77
2023/12/04 10:30:32;;;;;;;13.88;8.43;;;4.80;95.00;;;;;;4972812;28;20026;-76
2023/12/04 10:33:00;;;;;;;14.27;9.13;;;4.70;94.90;;;;;;4973280;28;20088;-77
2023/12/04 10:35:32;;;;;;;12.95;8.68;;;4.70;94.70;;;;;;4972112;28;20456;-77
2023/12/04 10:38:02;;;;;;;13.83;8.63;;;4.70;95.00;;;;;;4971491;28;20031;-78
2023/12/04 10:40:31;;;;;;;14.05;8.32;;;4.70;95.40;;;;;;4976047;28;20030;-77
2023/12/04 10:43:09;;;;;;;13.85;8.48;;;4.70;95.40;;;;;;4960226;28;20045;-78
2023/12/04 10:45:38;;;;;;;12.80;8.40;;;4.70;95.00;;;;;;4975503;28;20102;-76
2023/12/04 10:48:05;;;;;;;15.55;8.55;;;4.70;95.10;;;;;;4975983;28;20033;-77
2023/12/04 10:50:35;;;;;;;13.27;8.32;;;4.80;94.90;;;;;;4976464;28;20089;-77
2023/12/04 10:53:05;;;;;;;10.52;7.78;;;4.80;94.60;;;;;;4976402;28;20050;-75
2023/12/04 10:55:31;;;;;;;11.75;8.00;;;4.80;94.60;;;;;;4976451;28;20066;-75
2023/12/04 10:57:59;;;;;;;11.55;7.35;;;4.80;94.60;;;;;;4975311;28;20034;-74
2023/12/04 11:00:25;;;;;;;11.25;7.60;;;4.80;94.40;;;;;;4976022;28;20023;-76
2023/12/04 11:02:55;;;;;;;12.77;8.40;;;4.70;94.30;;;;;;4975717;28;20050;-75
2023/12/04 11:05:22;;;;;;;12.50;7.47;;;4.70;94.20;;;;;;4976706;28;20023;-75
2023/12/04 11:07:54;;;;;;;14.27;9.30;;;4.70;94.00;;;;;;4976063;28;20061;-75
2023/12/04 11:10:26;;;;;;;13.25;8.52;;;4.70;94.20;;;;;;4974293;28;20459;-75
2023/12/04 11:13:06;;;;;;;14.48;8.82;;;4.60;94.60;;;;;;4975429;28;20043;-73
2023/12/04 11:15:38;;;;;;;13.00;8.45;;;4.50;94.50;;;;;;4975074;28;20045;-74
2023/12/04 11:18:04;;;;;;;10.52;6.68;;;4.50;94.90;;;;;;4975644;28;20097;-74
2023/12/04 11:20:36;;;;;;;17.52;8.35;;;4.60;95.00;;;;;;4973441;28;20711;-73
2023/12/04 11:23:02;;;;;;;8.88;6.57;;;4.70;94.70;;;;;;4974123;28;20066;-74
2023/12/04 11:25:29;;;;;;;12.80;7.50;;;4.80;94.30;;;;;;4975234;28;20081;-74
2023/12/04 11:27:56;;;;;;;12.55;7.85;;;4.80;94.00;;;;;;4975078;28;20065;-75
2023/12/04 11:30:22;;;;;;;11.48;7.65;;;4.80;94.10;;;;;;4974796;28;20078;-72
2023/12/04 11:32:49;;;;;;;14.88;8.13;;;4.70;94.10;;;;;;4975304;28;20482;-72
2023/12/04 11:35:17;;;;;;;13.38;7.43;;;4.60;94.30;;;;;;4975188;28;20028;-73
2023/12/04 11:37:46;;;;;;;16.17;8.43;;;4.60;94.10;;;;;;4975056;28;20026;-72
2023/12/04 11:40:14;;;;;;;11.63;7.88;;;4.60;94.20;;;;;;4974964;28;20478;-76
2023/12/04 11:42:40;;;;;;;13.32;8.40;;;4.60;94.10;;;;;;4975037;28;20031;-74
2023/12/04 11:45:06;;;;;;;16.35;9.57;;;4.50;94.30;;;;;;4976762;28;20043;-77
2023/12/04 11:47:53;;;;;;;13.50;8.27;;;4.60;94.40;;;;;;4977358;28;20447;-72
2023/12/04 11:50:20;;;;;;;13.27;7.88;;;4.50;94.20;;;;;;4973063;28;20093;-72
2023/12/04 11:52:47;;;;;;;13.18;8.10;;;4.50;94.30;;;;;;4973574;28;20069;-71
2023/12/04 11:55:16;;;;;;;13.57;8.63;;;4.40;94.20;;;;;;4974128;28;20667;-72
2023/12/04 11:57:42;;;;;;;12.93;7.97;;;4.40;94.70;;;;;;4976681;28;20073;-72
2023/12/04 12:00:14;;;;;;;13.35;8.73;;;4.40;94.70;;;;;;4974288;28;20463;-72
2023/12/04 12:02:41;;;;;;;12.05;7.82;;;4.40;94.60;;;;;;4974143;28;20035;-73
2023/12/04 12:05:07;;;;;;;12.57;7.88;;;4.40;94.70;;;;;;4974873;28;20042;-71
2023/12/04 12:07:34;;;;;;;10.55;7.35;;;4.50;94.20;;;;;;4972913;28;20027;-71
2023/12/04 12:09:59;;;;;;;14.02;8.10;;;4.40;94.30;;;;;;4972832;28;20033;-74
2023/12/04 12:12:27;;;;;;;11.68;7.57;;;4.40;94.60;;;;;;4972283;28;20042;-73
2023/12/04 12:14:53;;;;;;;11.40;7.65;;;4.30;94.60;;;;;;4973405;28;20026;-73
2023/12/04 12:17:19;;;;;;;10.52;7.13;;;4.30;94.70;;;;;;4973658;28;20475;-74
2023/12/04 12:19:45;;;;;;;11.30;7.30;;;4.40;94.80;;;;;;4971460;28;20130;-75
2023/12/04 12:22:11;;;;;;;11.52;7.30;;;4.50;94.60;;;;;;4974222;28;20113;-71
2023/12/04 12:24:37;;;;;;;10.43;6.82;;;4.50;94.30;;;;;;4973340;28;20023;-72
2023/12/04 12:27:04;;;;;;;10.52;7.10;;;4.50;94.10;;;;;;4972988;28;20027;-74
2023/12/04 12:29:29;;;;;;;11.68;6.97;;;4.50;94.10;;;;;;4972917;28;20027;-74
2023/12/04 12:31:55;;;;;;;10.10;7.18;;;4.70;94.20;;;;;;4974474;28;20034;-72
2023/12/04 12:34:21;;;;;;;10.43;6.80;;;4.70;94.00;;;;;;4973959;28;20446;-72
2023/12/04 12:36:47;;;;;;;12.15;7.40;;;4.70;93.80;;;;;;4973476;28;20039;-73
2023/12/04 12:39:13;;;;;;;10.90;7.32;;;4.80;93.90;;;;;;4973586;28;20118;-74